Black Butte Atmospheric Data: 03/22/2019 Summary  Detailed Graphs  Station List

  Temperature     Wind Precipitation Visibility
Timestamp Air Wet
Bulb
Dew-
point
24-hr
Max
24-hr
Min
Relative
Humidity
Atmospheric
Pressure
Avg
Speed
Avg
Dir
Spot
Speed
Spot
Dir
Max
Speed
Max
Dir
  Rate Situation Start End 1 hr 3 hr 6 hr 12 hr 24 hr   Situation
Date Time °F °F °F °F °F % in Hg mph ° mph ° mph ° Y/N in/hr text Date Time Date Time in in in in in mi text
03/22/2019 12:07 AM 37.04 35.06 32.18 56.48 30.20 82.0 Not Reported 5.37 E 5.82 SE 6.93 E No 0.000 No Precipitation 03/20/2019 08:52 PM 03/20/2019 08:57 PM 0.000 0.000 0.000 0.000 0.000 Not Reported Not Reported
03/22/2019 12:22 AM 36.32 34.70 32.18 56.48 30.20 84.0 Not Reported 7.61 E 7.16 E 8.72 E No 0.000 No Precipitation 03/20/2019 08:52 PM 03/20/2019 08:57 PM 0.000 0.000 0.000 0.000 0.000 Not Reported Not Reported
03/22/2019 12:37 AM 36.14 34.52 32.00 56.48 30.20 84.0 Not Reported 6.93 E 6.04 E 8.72 E No 0.000 No Precipitation 03/20/2019 08:52 PM 03/20/2019 08:57 PM 0.000 0.000 0.000 0.000 0.000 Not Reported Not Reported
03/22/2019 12:52 AM 36.50 34.52 31.82 56.48 30.20 82.0 Not Reported 2.91 SE 2.01 SE 9.62 E No 0.000 No Precipitation 03/20/2019 08:52 PM 03/20/2019 08:57 PM 0.000 0.000 0.000 0.000 0.000 Not Reported Not Reported
03/22/2019 01:07 AM 35.96 34.16 31.82 56.48 30.20 83.0 Not Reported 6.49 SE 2.68 SE 5.59 SE No 0.000 No Precipitation 03/20/2019 08:52 PM 03/20/2019 08:57 PM 0.000 0.000 0.000 0.000 0.000 Not Reported Not Reported
03/22/2019 01:22 AM 35.42 33.80 31.64 56.48 30.20 85.0 Not Reported 2.01 SE 2.24 SE 7.16 SE No 0.000 No Precipitation 03/20/2019 08:52 PM 03/20/2019 08:57 PM 0.000 0.000 0.000 0.000 0.000 Not Reported Not Reported
03/22/2019 01:37 AM 36.14 34.34 31.82 56.48 30.20 83.0 Not Reported 7.38 SE 7.38 E 4.03 SE No 0.000 No Precipitation 03/20/2019 08:52 PM 03/20/2019 08:57 PM 0.000 0.000 0.000 0.000 0.000 Not Reported Not Reported
03/22/2019 01:52 AM 35.60 33.98 31.64 56.48 30.20 84.0 Not Reported 1.57 SE 2.46 S 9.17 SE No 0.000 No Precipitation 03/20/2019 08:52 PM 03/20/2019 08:57 PM 0.000 0.000 0.000 0.000 0.000 Not Reported Not Reported
03/22/2019 02:07 AM 35.60 33.98 31.82 56.48 30.20 85.0 Not Reported 2.91 SE 1.57 SE 7.16 SE No 0.000 No Precipitation 03/20/2019 08:52 PM 03/20/2019 08:57 PM 0.000 0.000 0.000 0.000 0.000 Not Reported Not Reported
03/22/2019 02:22 AM 38.66 36.14 32.54 56.48 30.20 78.0 Not Reported 10.07 E 7.83 E 11.18 SE No 0.000 No Precipitation 03/20/2019 08:52 PM 03/20/2019 08:57 PM 0.000 0.000 0.000 0.000 0.000 Not Reported Not Reported
03/22/2019 02:37 AM 38.66 36.32 32.90 56.48 30.20 79.0 Not Reported 8.72 SE 11.63 E 13.42 SE No 0.000 No Precipitation 03/20/2019 08:52 PM 03/20/2019 08:57 PM 0.000 0.000 0.000 0.000 0.000 Not Reported Not Reported
03/22/2019 02:52 AM 39.02 36.50 33.08 56.48 30.20 79.0 Not Reported 11.63 E 12.53 E 11.63 E No 0.000 No Precipitation 03/20/2019 08:52 PM 03/20/2019 08:57 PM 0.000 0.000 0.000 0.000 0.000 Not Reported Not Reported
03/22/2019 03:07 AM 39.38 36.68 33.08 56.48 30.20 77.0 Not Reported 8.28 SE 7.38 E 14.32 SE No 0.000 No Precipitation 03/20/2019 08:52 PM 03/20/2019 08:57 PM 0.000 0.000 0.000 0.000 0.000 Not Reported Not Reported
03/22/2019 03:22 AM 39.38 36.68 32.72 56.48 30.20 76.0 Not Reported 9.62 SE 11.86 E 12.30 SE No 0.000 No Precipitation 03/20/2019 08:52 PM 03/20/2019 08:57 PM 0.000 0.000 0.000 0.000 0.000 Not Reported Not Reported
03/22/2019 03:37 AM 39.74 36.68 32.54 56.48 30.20 74.0 Not Reported 11.18 E 11.63 E 12.53 E No 0.000 No Precipitation 03/20/2019 08:52 PM 03/20/2019 08:57 PM 0.000 0.000 0.000 0.000 0.000 Not Reported Not Reported
03/22/2019 03:52 AM 40.10 36.86 32.54 56.48 30.20 74.0 Not Reported 10.07 E 12.30 E 14.99 E No 0.000 No Precipitation 03/20/2019 08:52 PM 03/20/2019 08:57 PM 0.000 0.000 0.000 0.000 0.000 Not Reported Not Reported
03/22/2019 04:07 AM 39.92 36.86 32.90 56.48 30.20 75.0 Not Reported 10.29 E 10.74 SE 14.32 E No 0.000 No Precipitation 03/20/2019 08:52 PM 03/20/2019 08:57 PM 0.000 0.000 0.000 0.000 0.000 Not Reported Not Reported
03/22/2019 04:22 AM 40.10 36.86 32.36 56.48 30.20 73.0 Not Reported 10.51 SE 10.07 SE 15.21 E No 0.000 No Precipitation 03/20/2019 08:52 PM 03/20/2019 08:57 PM 0.000 0.000 0.000 0.000 0.000 Not Reported Not Reported
03/22/2019 04:37 AM 39.74 36.68 32.54 56.48 30.20 74.0 Not Reported 11.18 SE 10.51 E 15.66 SE No 0.000 No Precipitation 03/20/2019 08:52 PM 03/20/2019 08:57 PM 0.000 0.000 0.000 0.000 0.000 Not Reported Not Reported
03/22/2019 04:52 AM 39.92 36.68 32.36 56.48 30.20 74.0 Not Reported 12.97 E 13.65 E 16.33 E No 0.000 No Precipitation 03/20/2019 08:52 PM 03/20/2019 08:57 PM 0.000 0.000 0.000 0.000 0.000 Not Reported Not Reported
03/22/2019 05:07 AM 39.74 36.68 32.36 56.48 30.20 74.0 Not Reported 14.54 E 12.53 E 14.09 SE No 0.000 No Precipitation 03/20/2019 08:52 PM 03/20/2019 08:57 PM 0.000 0.000 0.000 0.000 0.000 Not Reported Not Reported
03/22/2019 05:22 AM 39.74 36.68 32.36 56.48 30.20 74.0 Not Reported 12.53 SE 12.53 SE 17.67 SE No 0.000 No Precipitation 03/20/2019 08:52 PM 03/20/2019 08:57 PM 0.000 0.000 0.000 0.000 0.000 Not Reported Not Reported
03/22/2019 05:37 AM 39.56 36.68 33.08 56.48 30.20 77.0 Not Reported 15.21 E 16.11 SE 17.22 E No 0.000 No Precipitation 03/20/2019 08:52 PM 03/20/2019 08:57 PM 0.000 0.000 0.000 0.000 0.000 Not Reported Not Reported
03/22/2019 05:52 AM 39.38 36.86 33.26 56.48 30.20 78.0 Not Reported 15.43 E 15.43 SE 17.00 E No 0.000 No Precipitation 03/20/2019 08:52 PM 03/20/2019 08:57 PM 0.000 0.000 0.000 0.000 0.000 Not Reported Not Reported
03/22/2019 06:07 AM 39.56 37.04 33.62 56.48 30.20 79.0 Not Reported 14.54 SE 16.55 SE 17.22 E No 0.000 No Precipitation 03/20/2019 08:52 PM 03/20/2019 08:57 PM 0.000 0.000 0.000 0.000 0.000 Not Reported Not Reported
03/22/2019 06:22 AM 39.38 37.04 33.80 56.48 30.20 80.0 Not Reported 15.66 E 13.65 SE 18.12 E No 0.000 No Precipitation 03/20/2019 08:52 PM 03/20/2019 08:57 PM 0.000 0.000 0.000 0.000 0.000 Not Reported Not Reported
03/22/2019 06:37 AM 39.02 36.86 33.98 56.48 30.20 81.0 Not Reported 15.66 E 15.88 SE 19.24 SE No 0.000 No Precipitation 03/20/2019 08:52 PM 03/20/2019 08:57 PM 0.000 0.000 0.000 0.000 0.000 Not Reported Not Reported
03/22/2019 06:52 AM 38.84 37.04 34.52 56.48 30.20 84.0 Not Reported 15.88 SE 15.66 E 20.36 E No 0.000 No Precipitation 03/20/2019 08:52 PM 03/20/2019 08:57 PM 0.000 0.000 0.000 0.000 0.000 Not Reported Not Reported
03/22/2019 07:07 AM 39.02 37.22 34.88 56.48 30.20 85.0 Not Reported 15.88 E 16.55 E 19.69 E No 0.000 No Precipitation 03/20/2019 08:52 PM 03/20/2019 08:57 PM 0.000 0.000 0.000 0.000 0.000 Not Reported Not Reported
03/22/2019 07:22 AM 38.84 37.22 34.88 56.48 30.20 85.0 Not Reported 13.87 E 12.97 E 18.57 SE No 0.000 No Precipitation 03/20/2019 08:52 PM 03/20/2019 08:57 PM 0.000 0.000 0.000 0.000 0.000 Not Reported Not Reported
03/22/2019 07:37 AM 38.48 36.86 34.70 56.48 30.20 85.0 Not Reported 15.66 E 15.43 SE 21.25 E No 0.000 No Precipitation 03/20/2019 08:52 PM 03/20/2019 08:57 PM 0.000 0.000 0.000 0.000 0.000 Not Reported Not Reported
03/22/2019 07:52 AM 38.66 36.86 34.52 56.48 30.20 85.0 Not Reported 16.78 E 15.21 SE 18.34 E No 0.000 No Precipitation 03/20/2019 08:52 PM 03/20/2019 08:57 PM 0.000 0.000 0.000 0.000 0.000 Not Reported Not Reported
03/22/2019 08:07 AM 38.30 36.68 34.70 56.48 30.20 86.0 Not Reported 13.42 SE 16.78 E 19.24 E No 0.000 No Precipitation 03/20/2019 08:52 PM 03/20/2019 08:57 PM 0.000 0.000 0.000 0.000 0.000 Not Reported Not Reported
03/22/2019 08:22 AM 38.30 36.68 34.70 56.48 30.38 86.0 Not Reported 14.99 E 14.99 E 16.55 E No 0.000 No Precipitation 03/20/2019 08:52 PM 03/20/2019 08:57 PM 0.000 0.000 0.000 0.000 0.000 Not Reported Not Reported
03/22/2019 08:37 AM 38.48 36.86 34.70 56.48 30.56 86.0 Not Reported 15.43 SE 14.76 E 20.36 E No 0.000 No Precipitation 03/20/2019 08:52 PM 03/20/2019 08:57 PM 0.000 0.000 0.000 0.000 0.000 Not Reported Not Reported
03/22/2019 08:52 AM 38.66 36.86 34.70 56.48 32.00 85.0 Not Reported 12.08 E 14.54 SE 16.11 E No 0.000 No Precipitation 03/20/2019 08:52 PM 03/20/2019 08:57 PM 0.000 0.000 0.000 0.000 0.000 Not Reported Not Reported
03/22/2019 09:07 AM 38.12 36.86 35.24 56.48 32.72 89.0 Not Reported 14.09 E 19.01 E 18.79 SE No 0.000 No Precipitation 03/20/2019 08:52 PM 03/20/2019 08:57 PM 0.000 0.000 0.000 0.000 0.000 Not Reported Not Reported
03/22/2019 09:22 AM 37.58 36.68 35.60 56.48 32.90 92.0 Not Reported 10.51 E 10.07 E 15.66 E No 0.000 No Precipitation 03/20/2019 08:52 PM 03/20/2019 08:57 PM 0.000 0.000 0.000 0.000 0.000 Not Reported Not Reported
03/22/2019 09:37 AM 37.40 36.68 35.60 56.48 33.80 93.0 Not Reported 13.87 SE 16.33 SE 17.22 E No 0.000 No Precipitation 03/22/2019 08:25 AM 03/22/2019 08:30 AM 0.004 0.004 0.004 0.004 0.004 Not Reported Not Reported
03/22/2019 09:52 AM 37.40 36.68 35.60 56.48 33.80 93.0 Not Reported 14.99 E 10.29 SE 17.90 E No 0.000 No Precipitation 03/22/2019 08:25 AM 03/22/2019 08:30 AM 0.004 0.004 0.004 0.004 0.004 Not Reported Not Reported
03/22/2019 10:07 AM 37.40 36.68 35.78 56.48 35.42 93.0 Not Reported 14.32 SE 12.53 SE 18.57 E No 0.000 No Precipitation 03/22/2019 08:52 AM 03/22/2019 08:57 AM 0.008 0.008 0.008 0.008 0.008 Not Reported Not Reported
03/22/2019 10:22 AM 37.58 36.68 35.60 56.48 35.42 92.0 Not Reported 15.88 E 16.33 SE 20.80 SE No 0.000 No Precipitation 03/22/2019 08:52 AM 03/22/2019 08:57 AM 0.008 0.008 0.008 0.008 0.008 Not Reported Not Reported
03/22/2019 10:37 AM 37.94 36.86 35.42 56.48 35.42 90.0 Not Reported 15.21 E 18.79 E 19.46 E No 0.000 No Precipitation 03/22/2019 08:52 AM 03/22/2019 08:57 AM 0.004 0.008 0.008 0.008 0.008 Not Reported Not Reported
03/22/2019 10:52 AM 37.94 36.86 35.42 56.48 35.42 90.0 Not Reported 14.09 E 11.63 SE 18.57 E No 0.000 No Precipitation 03/22/2019 08:52 AM 03/22/2019 08:57 AM 0.004 0.008 0.008 0.008 0.008 Not Reported Not Reported
03/22/2019 11:07 AM 38.30 37.22 35.60 56.48 35.42 89.0 Not Reported 13.87 SE 14.09 E 17.00 E No 0.000 No Precipitation 03/22/2019 08:52 AM 03/22/2019 08:57 AM 0.000 0.008 0.008 0.008 0.008 Not Reported Not Reported
03/22/2019 11:22 AM 39.02 37.40 35.24 56.48 35.42 85.0 Not Reported 16.55 E 17.22 SE 18.34 SE No 0.000 No Precipitation 03/22/2019 08:52 AM 03/22/2019 08:57 AM 0.000 0.008 0.008 0.008 0.008 Not Reported Not Reported
03/22/2019 11:37 AM 39.20 37.22 34.70 56.48 35.42 83.0 Not Reported 16.33 SE 20.80 SE 19.91 E No 0.000 No Precipitation 03/22/2019 08:52 AM 03/22/2019 08:57 AM 0.000 0.008 0.008 0.008 0.008 Not Reported Not Reported
03/22/2019 11:52 AM 39.20 37.40 34.88 56.48 35.42 84.0 Not Reported 12.53 E 11.18 E 21.25 E No 0.000 No Precipitation 03/22/2019 08:52 AM 03/22/2019 08:57 AM 0.000 0.008 0.008 0.008 0.008 Not Reported Not Reported
03/22/2019 12:07 PM 39.20 37.22 34.34 56.48 35.42 82.0 Not Reported 17.45 E 19.24 SE 21.92 SE No 0.000 No Precipitation 03/22/2019 08:52 AM 03/22/2019 08:57 AM 0.000 0.008 0.008 0.008 0.008 Not Reported Not Reported
03/22/2019 12:22 PM 39.56 37.40 34.70 56.48 35.42 82.0 Not Reported 16.33 E 16.78 E 20.80 E No 0.000 No Precipitation 03/22/2019 08:52 AM 03/22/2019 08:57 AM 0.000 0.008 0.008 0.008 0.008 Not Reported Not Reported
03/22/2019 12:37 PM 39.56 37.40 34.70 56.48 35.42 82.0 Not Reported 16.11 SE 14.76 SE 27.51 E No 0.000 No Precipitation 03/22/2019 08:52 AM 03/22/2019 08:57 AM 0.000 0.004 0.008 0.008 0.008 Not Reported Not Reported
03/22/2019 12:52 PM 39.02 37.04 34.52 56.48 35.42 83.0 Not Reported 17.90 E 19.46 E 23.94 SE No 0.000 No Precipitation 03/22/2019 08:52 AM 03/22/2019 08:57 AM 0.000 0.004 0.008 0.008 0.008 Not Reported Not Reported
03/22/2019 01:07 PM 38.30 36.50 34.16 56.48 35.42 85.0 Not Reported 17.22 E 17.00 SE 21.70 SE No 0.000 No Precipitation 03/22/2019 08:52 AM 03/22/2019 08:57 AM 0.000 0.000 0.008 0.008 0.008 Not Reported Not Reported
03/22/2019 01:22 PM 41.18 38.30 34.52 56.48 35.42 76.0 Not Reported 17.90 SE 19.46 SE 21.25 SE No 0.000 No Precipitation 03/22/2019 08:52 AM 03/22/2019 08:57 AM 0.000 0.000 0.008 0.008 0.008 Not Reported Not Reported
03/22/2019 01:37 PM 41.72 38.12 33.44 56.48 35.42 72.0 Not Reported 14.32 SE 18.12 E 20.13 E No 0.000 No Precipitation 03/22/2019 08:52 AM 03/22/2019 08:57 AM 0.000 0.000 0.008 0.008 0.008 Not Reported Not Reported
03/22/2019 01:52 PM 40.82 37.76 33.44 56.48 35.42 74.0 Not Reported 19.69 SE 23.04 SE 23.04 SE No 0.000 No Precipitation 03/22/2019 08:52 AM 03/22/2019 08:57 AM 0.000 0.000 0.008 0.008 0.008 Not Reported Not Reported
03/22/2019 02:07 PM 41.54 39.02 35.78 56.48 35.42 79.0 Not Reported 14.09 E 12.30 SE 24.16 SE No 0.000 No Precipitation 03/22/2019 08:52 AM 03/22/2019 08:57 AM 0.000 0.000 0.008 0.008 0.008 Not Reported Not Reported
03/22/2019 02:22 PM 39.74 37.40 34.52 56.48 35.42 81.0 Not Reported 15.66 E 20.36 E 22.37 E No 0.000 No Precipitation 03/22/2019 08:52 AM 03/22/2019 08:57 AM 0.000 0.000 0.008 0.008 0.008 Not Reported Not Reported
03/22/2019 02:37 PM 39.38 37.58 35.24 56.48 35.42 84.0 Not Reported 18.34 SE 11.18 SE 22.15 SE No 0.000 No Precipitation 03/22/2019 08:52 AM 03/22/2019 08:57 AM 0.000 0.000 0.008 0.008 0.008 Not Reported Not Reported
03/22/2019 02:52 PM 39.74 37.58 34.70 56.48 35.42 82.0 Not Reported 13.87 SE 14.99 E 17.90 E No 0.000 No Precipitation 03/22/2019 08:52 AM 03/22/2019 08:57 AM 0.000 0.000 0.008 0.008 0.008 Not Reported Not Reported
03/22/2019 03:07 PM 39.92 37.94 35.60 56.48 35.42 84.0 Not Reported 12.30 SE 13.42 E 22.15 E No 0.000 No Precipitation 03/22/2019 08:52 AM 03/22/2019 08:57 AM 0.000 0.000 0.008 0.008 0.008 Not Reported Not Reported
03/22/2019 03:22 PM 39.38 37.76 35.78 56.48 35.42 86.0 Not Reported 10.29 SE 13.65 SE 14.76 SE No 0.000 No Precipitation 03/22/2019 08:52 AM 03/22/2019 08:57 AM 0.000 0.000 0.008 0.008 0.008 Not Reported Not Reported
03/22/2019 03:37 PM 38.66 37.40 35.60 56.48 35.42 88.0 Not Reported 9.17 SE 7.61 SE 13.65 SE No 0.000 No Precipitation 03/22/2019 08:52 AM 03/22/2019 08:57 AM 0.000 0.000 0.004 0.008 0.008 Not Reported Not Reported
03/22/2019 03:52 PM 38.48 37.04 35.06 56.48 35.42 87.0 Not Reported 16.55 SE 17.00 SE 12.30 E No 0.000 No Precipitation 03/22/2019 08:52 AM 03/22/2019 08:57 AM 0.000 0.000 0.004 0.008 0.008 Not Reported Not Reported
03/22/2019 04:07 PM 39.74 37.04 33.44 56.48 35.42 77.0 Not Reported 13.87 SE 13.87 SE 17.90 E No 0.000 No Precipitation 03/22/2019 08:52 AM 03/22/2019 08:57 AM 0.000 0.000 0.000 0.008 0.008 Not Reported Not Reported
03/22/2019 04:22 PM 39.92 36.86 32.54 56.48 35.42 74.0 Not Reported 15.88 SE 16.33 SE 19.69 SE No 0.000 No Precipitation 03/22/2019 08:52 AM 03/22/2019 08:57 AM 0.000 0.000 0.000 0.008 0.008 Not Reported Not Reported
03/22/2019 04:37 PM 39.20 36.68 33.26 56.48 35.42 79.0 Not Reported 14.09 SE 14.76 SE 19.46 SE No 0.000 No Precipitation 03/22/2019 08:52 AM 03/22/2019 08:57 AM 0.000 0.000 0.000 0.008 0.008 Not Reported Not Reported
03/22/2019 04:52 PM 39.38 36.50 32.72 56.48 35.42 76.0 Not Reported 14.32 SE 14.54 SE 18.12 E No 0.000 No Precipitation 03/22/2019 08:52 AM 03/22/2019 08:57 AM 0.000 0.000 0.000 0.008 0.008 Not Reported Not Reported
03/22/2019 05:07 PM 38.30 35.78 32.36 56.48 35.42 79.0 Not Reported 10.96 SE 12.53 E 18.12 SE No 0.000 No Precipitation 03/22/2019 08:52 AM 03/22/2019 08:57 AM 0.000 0.000 0.000 0.008 0.008 Not Reported Not Reported
03/22/2019 05:22 PM 36.68 35.06 32.90 53.96 35.42 86.0 Not Reported 11.63 SE 12.97 E 18.34 SE No 0.000 No Precipitation 03/22/2019 08:52 AM 03/22/2019 08:57 AM 0.000 0.000 0.000 0.008 0.008 Not Reported Not Reported
03/22/2019 05:37 PM 35.60 34.52 33.08 53.78 35.42 90.0 Not Reported 14.76 SE 11.18 E 17.45 SE No 0.000 No Precipitation 03/22/2019 08:52 AM 03/22/2019 08:57 AM 0.000 0.000 0.000 0.008 0.008 Not Reported Not Reported
03/22/2019 05:52 PM 35.24 34.34 33.08 53.60 35.06 91.0 Not Reported 12.30 SE 12.53 SE 15.66 SE No 0.000 No Precipitation 03/22/2019 04:44 PM 03/22/2019 04:49 PM 0.004 0.004 0.004 0.008 0.008 Not Reported Not Reported
03/22/2019 06:07 PM 35.78 34.88 33.44 53.42 35.06 91.0 Not Reported 13.87 E 12.75 SE 18.12 SE No 0.000 No Precipitation 03/22/2019 04:55 PM 03/22/2019 05:04 PM 0.008 0.008 0.008 0.020 0.020 Not Reported Not Reported
03/22/2019 06:22 PM 35.96 35.06 33.80 51.98 35.06 91.0 Not Reported 12.75 E 13.20 E 14.32 E No 0.000 No Precipitation 03/22/2019 05:13 PM 03/22/2019 05:18 PM 0.016 0.016 0.016 0.020 0.020 Not Reported Not Reported
03/22/2019 06:37 PM 38.48 37.22 35.60 51.98 35.06 89.0 Not Reported 8.28 SE 10.74 E 13.87 E No 0.000 No Precipitation 03/22/2019 05:13 PM 03/22/2019 05:18 PM 0.016 0.016 0.016 0.020 0.020 Not Reported Not Reported
03/22/2019 06:52 PM 38.12 36.50 34.34 50.36 35.06 85.0 Not Reported 10.29 SE 8.95 E 17.67 E No 0.000 No Precipitation 03/22/2019 05:13 PM 03/22/2019 05:18 PM 0.008 0.016 0.016 0.020 0.020 Not Reported Not Reported
03/22/2019 07:07 PM 37.94 36.50 34.52 50.00 35.06 87.0 Not Reported 9.17 SE 9.17 SE 13.42 SE No 0.000 No Precipitation 03/22/2019 05:13 PM 03/22/2019 05:18 PM 0.004 0.016 0.016 0.020 0.020 Not Reported Not Reported
03/22/2019 07:22 PM 37.94 36.68 34.88 49.64 35.06 88.0 Not Reported 6.04 SE 6.93 SE 11.41 E No 0.000 No Precipitation 03/22/2019 05:13 PM 03/22/2019 05:18 PM 0.000 0.016 0.016 0.020 0.020 Not Reported Not Reported
03/22/2019 07:37 PM 36.32 35.42 34.16 48.38 35.06 91.0 Not Reported 5.59 SE 7.61 E 12.30 E No 0.000 No Precipitation 03/22/2019 05:13 PM 03/22/2019 05:18 PM 0.000 0.016 0.016 0.020 0.020 Not Reported Not Reported
03/22/2019 07:52 PM 35.78 35.06 34.16 47.30 35.06 93.0 Not Reported 8.50 SE 6.71 SE 8.50 E No 0.000 No Precipitation 03/22/2019 05:13 PM 03/22/2019 05:18 PM 0.000 0.016 0.016 0.020 0.020 Not Reported Not Reported
03/22/2019 08:07 PM 35.24 34.70 33.98 46.04 35.06 94.0 Not Reported 7.16 SE 10.07 SE 9.62 E No 0.000 No Precipitation 03/22/2019 05:13 PM 03/22/2019 05:18 PM 0.000 0.016 0.016 0.020 0.020 Not Reported Not Reported
03/22/2019 08:22 PM 34.88 34.34 33.62 44.78 34.88 95.0 Not Reported 9.62 E 8.28 E 12.97 SE No 0.000 No Precipitation 03/22/2019 05:13 PM 03/22/2019 05:18 PM 0.000 0.016 0.016 0.020 0.020 Not Reported Not Reported
03/22/2019 08:37 PM 34.34 33.98 33.26 44.24 34.34 95.0 Not Reported 6.93 SE 9.40 E 11.63 E No 0.000 No Precipitation 03/22/2019 05:13 PM 03/22/2019 05:18 PM 0.000 0.016 0.016 0.020 0.020 Not Reported Not Reported
03/22/2019 08:52 PM 34.34 33.80 33.26 43.52 33.98 95.0 Not Reported 8.05 SE 8.72 SE 9.40 SE No 0.000 No Precipitation 03/22/2019 05:13 PM 03/22/2019 05:18 PM 0.000 0.008 0.016 0.020 0.020 Not Reported Not Reported
03/22/2019 09:07 PM 33.98 33.44 32.90 42.98 33.98 95.0 Not Reported 8.50 SE 8.28 SE 9.62 E No 0.000 No Precipitation 03/22/2019 05:13 PM 03/22/2019 05:18 PM 0.000 0.004 0.016 0.020 0.020 Not Reported Not Reported
03/22/2019 09:22 PM 34.34 33.98 33.26 42.98 33.98 95.0 Not Reported 8.50 E 7.83 E 10.74 E No 0.000 No Precipitation 03/22/2019 05:13 PM 03/22/2019 05:18 PM 0.000 0.000 0.016 0.020 0.020 Not Reported Not Reported
03/22/2019 09:37 PM 34.16 33.62 33.08 42.98 33.98 95.0 Not Reported 10.29 SE 8.72 E 11.86 SE No 0.000 No Precipitation 03/22/2019 05:13 PM 03/22/2019 05:18 PM 0.000 0.000 0.016 0.020 0.020 Not Reported Not Reported
03/22/2019 09:52 PM 33.62 33.26 32.72 42.98 33.62 95.0 Not Reported 11.41 E 11.63 E 13.42 SE No 0.000 No Precipitation 03/22/2019 05:13 PM 03/22/2019 05:18 PM 0.000 0.000 0.016 0.020 0.020 Not Reported Not Reported
03/22/2019 10:07 PM 33.98 33.44 32.90 42.98 33.62 96.0 Not Reported 11.41 SE 10.51 E 13.65 E No 0.000 No Precipitation 03/22/2019 05:13 PM 03/22/2019 05:18 PM 0.000 0.000 0.016 0.016 0.020 Not Reported Not Reported
03/22/2019 10:22 PM 34.16 33.80 33.26 42.98 33.62 96.0 Not Reported 8.72 SE 10.07 SE 11.63 SE No 0.000 No Precipitation 03/22/2019 05:13 PM 03/22/2019 05:18 PM 0.000 0.000 0.016 0.016 0.020 Not Reported Not Reported
03/22/2019 10:37 PM 34.34 33.98 33.44 42.98 33.62 96.0 Not Reported 10.07 E 10.51 SE 11.86 E No 0.000 No Precipitation 03/22/2019 05:13 PM 03/22/2019 05:18 PM 0.000 0.000 0.016 0.016 0.020 Not Reported Not Reported
03/22/2019 10:52 PM 34.70 34.34 33.80 42.98 33.62 96.0 Not Reported 9.84 E 11.41 E 13.65 SE No 0.000 No Precipitation 03/22/2019 05:13 PM 03/22/2019 05:18 PM 0.000 0.000 0.016 0.016 0.020 Not Reported Not Reported
03/22/2019 11:07 PM 34.34 33.98 33.44 42.98 33.62 96.0 Not Reported 10.51 SE 9.62 SE 12.30 E No 0.000 No Precipitation 03/22/2019 05:13 PM 03/22/2019 05:18 PM 0.000 0.000 0.016 0.016 0.020 Not Reported Not Reported
03/22/2019 11:22 PM 34.52 34.16 33.62 42.98 33.62 96.0 Not Reported 8.28 E 12.75 E 12.97 SE No 0.000 No Precipitation 03/22/2019 05:13 PM 03/22/2019 05:18 PM 0.000 0.000 0.016 0.016 0.020 Not Reported Not Reported
03/22/2019 11:37 PM 34.52 34.16 33.62 42.98 33.62 96.0 Not Reported 9.17 E 7.83 SE 12.75 E No 0.000 No Precipitation 03/22/2019 05:13 PM 03/22/2019 05:18 PM 0.000 0.000 0.016 0.016 0.020 Not Reported Not Reported
03/22/2019 11:52 PM 34.88 34.52 33.98 42.98 33.62 96.0 Not Reported 8.28 SE 6.04 E 12.30 E No 0.000 No Precipitation 03/22/2019 05:13 PM 03/22/2019 05:18 PM 0.000 0.000 0.008 0.016 0.020 Not Reported Not Reported